createdAt,value
2022-12-09T00:01:28.353Z,6.74
2022-12-09T00:03:58.151Z,6.48
2022-12-09T00:06:30.940Z,6.36
2022-12-09T00:09:00.299Z,6.59
2022-12-09T00:11:30.834Z,6.55
2022-12-09T00:14:03.205Z,6.27
2022-12-09T00:16:32.872Z,6.54
2022-12-09T00:19:02.028Z,6.72
2022-12-09T00:21:33.737Z,6.54
2022-12-09T00:24:05.829Z,6.35
2022-12-09T00:26:38.483Z,5.70
2022-12-09T00:29:07.336Z,6.10
2022-12-09T00:31:39.448Z,6.32
2022-12-09T00:34:12.661Z,6.47
2022-12-09T00:36:41.550Z,6.46
2022-12-09T00:39:13.280Z,6.73
2022-12-09T00:41:44.122Z,6.70
2022-12-09T00:44:14.318Z,6.55
2022-12-09T00:46:43.554Z,6.23
2022-12-09T00:49:12.721Z,6.54
2022-12-09T00:51:41.345Z,6.26
2022-12-09T00:54:10.252Z,5.95
2022-12-09T00:56:39.292Z,6.52
2022-12-09T00:59:09.484Z,6.47
2022-12-09T01:01:39.823Z,6.49
2022-12-09T01:04:11.110Z,6.57
2022-12-09T01:06:40.464Z,6.45
2022-12-09T01:09:09.246Z,6.54
2022-12-09T01:11:38.573Z,6.46
2022-12-09T01:14:09.725Z,6.46
2022-12-09T01:16:39.135Z,6.47
2022-12-09T01:19:12.433Z,6.39
2022-12-09T01:21:41.921Z,6.31
2022-12-09T01:24:14.211Z,6.33
2022-12-09T01:26:43.644Z,6.28
2022-12-09T01:29:14.270Z,5.77
2022-12-09T01:31:43.676Z,5.98
2022-12-09T01:34:13.359Z,6.03
2022-12-09T01:36:44.080Z,6.00
2022-12-09T01:39:12.572Z,5.99
2022-12-09T01:41:42.599Z,5.95
2022-12-09T01:44:22.024Z,5.84
2022-12-09T01:46:57.501Z,5.86
2022-12-09T01:49:31.415Z,5.70
2022-12-09T01:52:06.983Z,5.40
2022-12-09T01:54:36.031Z,5.49
2022-12-09T01:57:05.979Z,5.48
2022-12-09T01:59:36.740Z,5.42
2022-12-09T02:02:09.320Z,5.32
2022-12-09T02:04:42.671Z,5.29
2022-12-09T02:07:13.387Z,5.24
2022-12-09T02:09:45.520Z,5.20
2022-12-09T02:12:17.033Z,5.15
2022-12-09T02:14:56.099Z,4.98
2022-12-09T02:17:36.355Z,5.04
2022-12-09T02:20:17.369Z,4.76
2022-12-09T02:22:53.760Z,4.76
2022-12-09T02:25:33.819Z,4.73
2022-12-09T02:28:46.694Z,4.63
2022-12-09T02:31:31.224Z,4.57
2022-12-09T02:34:16.217Z,4.55
2022-12-09T02:36:56.151Z,4.31
2022-12-09T02:39:32.529Z,4.36
2022-12-09T02:42:06.151Z,4.31
2022-12-09T02:44:39.476Z,4.17
2022-12-09T02:47:11.072Z,4.21
2022-12-09T02:49:44.283Z,3.98
2022-12-09T02:52:16.224Z,4.09
2022-12-09T02:54:46.263Z,4.10
2022-12-09T02:57:19.417Z,4.07
2022-12-09T02:59:48.354Z,3.90
2022-12-09T03:02:28.457Z,3.97
2022-12-09T03:05:13.530Z,3.94
2022-12-09T03:07:53.295Z,3.82
2022-12-09T03:10:29.799Z,3.86
2022-12-09T03:13:05.102Z,3.77
2022-12-09T03:15:37.214Z,3.68
2022-12-09T03:18:15.387Z,3.71
2022-12-09T03:20:49.267Z,3.60
2022-12-09T03:23:25.089Z,3.58
2022-12-09T03:25:56.171Z,3.59
2022-12-09T03:28:31.976Z,3.55
2022-12-09T03:31:06.174Z,3.52
2022-12-09T03:33:36.483Z,3.48
2022-12-09T03:36:14.253Z,3.43
2022-12-09T03:38:47.310Z,3.39
2022-12-09T03:41:24.227Z,3.34
2022-12-09T03:43:57.521Z,3.32
2022-12-09T03:46:29.878Z,3.28
2022-12-09T03:49:01.741Z,3.20
2022-12-09T03:51:37.563Z,3.22
2022-12-09T03:54:16.317Z,3.22
2022-12-09T03:56:51.379Z,3.18
2022-12-09T03:59:20.534Z,3.11
2022-12-09T04:01:50.210Z,3.07
2022-12-09T04:04:19.251Z,3.00
2022-12-09T04:06:52.316Z,3.06
2022-12-09T04:09:21.068Z,3.04
2022-12-09T04:11:50.275Z,2.90
2022-12-09T04:14:19.338Z,3.07
2022-12-09T04:16:48.363Z,3.05
2022-12-09T04:19:17.284Z,3.08
2022-12-09T04:21:46.044Z,3.05
2022-12-09T04:24:17.395Z,2.97
2022-12-09T04:26:46.931Z,3.04
2022-12-09T04:29:18.312Z,3.02
2022-12-09T04:31:47.205Z,3.02
2022-12-09T04:34:15.773Z,2.95
2022-12-09T04:36:44.954Z,2.94
2022-12-09T04:39:15.215Z,2.91
2022-12-09T04:41:44.631Z,2.87
2022-12-09T04:44:14.741Z,2.82
2022-12-09T04:46:43.421Z,2.77
2022-12-09T04:49:12.049Z,2.64
2022-12-09T04:51:41.580Z,2.67
2022-12-09T04:54:18.047Z,2.62
2022-12-09T04:56:47.486Z,2.59
2022-12-09T04:59:16.791Z,2.65
2022-12-09T05:01:45.757Z,2.52
2022-12-09T05:04:15.586Z,2.64
2022-12-09T05:06:44.904Z,2.58
2022-12-09T05:09:15.289Z,2.45
2022-12-09T05:11:47.919Z,2.53
2022-12-09T05:14:16.997Z,2.53
2022-12-09T05:16:47.604Z,2.51
2022-12-09T05:19:17.191Z,2.51
2022-12-09T05:21:46.379Z,2.45
2022-12-09T05:24:15.572Z,2.51
2022-12-09T05:26:48.499Z,2.38
2022-12-09T05:29:22.521Z,2.45
2022-12-09T05:31:53.323Z,2.41
2022-12-09T05:34:23.512Z,2.35
2022-12-09T05:36:53.698Z,2.32
2022-12-09T05:39:22.766Z,2.29
2022-12-09T05:41:56.526Z,2.24
2022-12-09T05:44:26.790Z,2.32
2022-12-09T05:46:55.663Z,2.16
2022-12-09T05:49:25.495Z,2.01
2022-12-09T05:51:55.978Z,2.18
2022-12-09T05:54:25.958Z,2.19
2022-12-09T05:56:57.462Z,2.11
2022-12-09T05:59:27.105Z,2.21
2022-12-09T06:01:57.393Z,2.15
2022-12-09T06:04:28.081Z,2.13
2022-12-09T06:06:58.012Z,2.08
2022-12-09T06:09:28.547Z,1.98
2022-12-09T06:11:59.956Z,2.04
2022-12-09T06:14:29.180Z,2.02
2022-12-09T06:16:58.753Z,1.86
2022-12-09T06:19:28.324Z,1.81
2022-12-09T06:21:57.851Z,1.92
2022-12-09T06:24:26.944Z,1.83
2022-12-09T06:26:58.491Z,1.88
2022-12-09T06:29:27.609Z,1.94
2022-12-09T06:31:57.679Z,1.92
2022-12-09T06:34:29.205Z,1.89
2022-12-09T06:37:00.959Z,1.90
2022-12-09T06:39:30.872Z,1.90
2022-12-09T06:42:02.484Z,1.82
2022-12-09T06:44:31.996Z,1.84
2022-12-09T06:47:01.031Z,1.89
2022-12-09T06:49:30.780Z,1.86
2022-12-09T06:52:01.777Z,1.86
2022-12-09T06:54:32.821Z,1.85
2022-12-09T06:57:49.219Z,1.88
2022-12-09T07:00:19.018Z,1.74
2022-12-09T07:02:50.394Z,1.84
2022-12-09T07:05:21.612Z,1.81
2022-12-09T07:07:53.055Z,1.89
2022-12-09T07:10:23.801Z,1.85
2022-12-09T07:12:55.449Z,1.78
2022-12-09T07:15:25.860Z,1.82
2022-12-09T07:17:56.315Z,1.82
2022-12-09T07:20:26.767Z,1.85
2022-12-09T07:22:56.267Z,1.84
2022-12-09T07:25:25.653Z,1.87
2022-12-09T07:27:56.431Z,1.76
2022-12-09T07:30:27.191Z,1.84
2022-12-09T07:32:56.209Z,1.79
2022-12-09T07:35:28.355Z,1.86
2022-12-09T07:37:58.666Z,1.82
2022-12-09T07:40:28.073Z,1.84
2022-12-09T07:42:59.882Z,1.82
2022-12-09T07:45:29.417Z,1.85
2022-12-09T07:47:58.433Z,1.84
2022-12-09T07:50:27.536Z,1.74
2022-12-09T07:52:57.296Z,1.87
2022-12-09T07:55:26.274Z,1.85
2022-12-09T07:57:55.144Z,1.90
2022-12-09T08:00:27.168Z,1.92
2022-12-09T08:02:57.861Z,1.96
2022-12-09T08:05:30.242Z,1.99
2022-12-09T08:08:00.961Z,1.94
2022-12-09T08:10:30.922Z,2.00
2022-12-09T08:13:03.118Z,2.03
2022-12-09T08:15:35.879Z,2.02
2022-12-09T08:18:05.479Z,1.97
2022-12-09T08:20:34.489Z,2.00
2022-12-09T08:23:03.563Z,2.07
2022-12-09T08:25:32.275Z,2.12
2022-12-09T08:28:01.510Z,2.18
2022-12-09T08:30:33.323Z,2.22
2022-12-09T08:33:03.534Z,2.22
2022-12-09T08:35:32.557Z,2.39
2022-12-09T08:38:01.656Z,2.43
2022-12-09T08:40:31.723Z,2.57
2022-12-09T08:43:01.792Z,2.56
2022-12-09T08:45:31.489Z,2.74
2022-12-09T08:48:02.960Z,2.56
2022-12-09T08:50:32.327Z,2.71
2022-12-09T08:53:01.760Z,2.88
2022-12-09T08:55:31.210Z,3.03
2022-12-09T08:58:00.084Z,3.01
2022-12-09T09:00:29.092Z,3.05
2022-12-09T09:02:58.563Z,3.11
2022-12-09T09:05:30.070Z,2.91
2022-12-09T09:07:59.514Z,3.39
2022-12-09T09:10:29.755Z,3.44
2022-12-09T09:12:59.711Z,3.57
2022-12-09T09:15:29.091Z,3.65
2022-12-09T09:17:58.252Z,3.56
2022-12-09T09:20:29.551Z,3.50
2022-12-09T09:23:03.128Z,3.75
2022-12-09T09:25:33.157Z,3.87
2022-12-09T09:28:02.296Z,4.00
2022-12-09T09:30:31.492Z,4.22
2022-12-09T09:33:00.120Z,4.11
2022-12-09T09:35:31.704Z,4.15
2022-12-09T09:38:00.662Z,4.31
2022-12-09T09:40:31.915Z,4.43
2022-12-09T09:43:03.494Z,4.46
2022-12-09T09:45:32.644Z,4.60
2022-12-09T09:48:05.621Z,4.69
2022-12-09T09:50:44.574Z,4.84
2022-12-09T09:53:26.066Z,4.75
2022-12-09T09:56:01.469Z,5.09
2022-12-09T09:58:44.228Z,4.99
2022-12-09T10:01:17.800Z,5.04
2022-12-09T10:04:00.795Z,4.79
2022-12-09T10:06:45.741Z,4.89
2022-12-09T10:09:21.865Z,4.84
2022-12-09T10:12:03.188Z,5.23
2022-12-09T10:14:46.156Z,4.94
2022-12-09T10:17:27.959Z,4.41
2022-12-09T10:20:06.475Z,4.87
2022-12-09T10:22:44.836Z,4.76
2022-12-09T10:25:22.871Z,4.54
2022-12-09T10:28:01.622Z,4.65
2022-12-09T10:30:37.274Z,4.49
2022-12-09T10:33:11.896Z,4.77
2022-12-09T10:35:44.270Z,4.40
2022-12-09T10:38:17.601Z,4.88
2022-12-09T10:41:01.272Z,4.74
2022-12-09T10:43:38.980Z,4.86
2022-12-09T10:46:18.755Z,4.92
2022-12-09T10:48:56.431Z,4.62
2022-12-09T10:51:30.186Z,4.62
2022-12-09T10:54:04.473Z,4.95
2022-12-09T10:56:37.066Z,5.18
2022-12-09T10:59:19.749Z,5.25
2022-12-09T11:01:55.717Z,5.08
2022-12-09T11:04:27.289Z,5.15
2022-12-09T11:07:01.139Z,5.38
2022-12-09T11:09:34.955Z,5.40
2022-12-09T11:12:08.748Z,5.62
2022-12-09T11:14:41.362Z,5.59
2022-12-09T11:17:17.823Z,5.68
2022-12-09T11:19:52.531Z,5.68
2022-12-09T11:22:40.269Z,5.59
2022-12-09T11:25:34.516Z,5.69
2022-12-09T11:28:06.725Z,5.62
2022-12-09T11:31:04.745Z,5.55
2022-12-09T11:33:36.716Z,5.61
2022-12-09T11:36:10.754Z,4.89
2022-12-09T11:38:43.027Z,5.06
2022-12-09T11:41:36.334Z,5.70
2022-12-09T11:44:24.615Z,5.52
2022-12-09T11:47:01.564Z,5.48
2022-12-09T11:49:33.872Z,4.95
2022-12-09T11:52:39.101Z,5.23
2022-12-09T11:55:20.251Z,5.29
2022-12-09T11:57:56.679Z,5.71
2022-12-09T12:00:29.161Z,5.52
2022-12-09T12:03:08.254Z,5.61
2022-12-09T12:05:42.224Z,5.41
2022-12-09T12:08:22.271Z,5.81
2022-12-09T12:10:58.351Z,5.69
2022-12-09T12:13:38.482Z,5.59
2022-12-09T12:16:13.009Z,5.83
2022-12-09T12:19:00.427Z,5.78
2022-12-09T12:21:45.775Z,5.73
2022-12-09T12:24:56.184Z,5.58
2022-12-09T12:27:45.471Z,5.82
2022-12-09T12:30:20.309Z,5.51
2022-12-09T12:36:24.263Z,5.83
2022-12-09T12:39:06.226Z,5.64
2022-12-09T12:41:51.966Z,5.47
2022-12-09T12:45:08.596Z,5.86
2022-12-09T12:47:47.920Z,5.80
2022-12-09T12:50:52.906Z,5.78
2022-12-09T12:53:37.844Z,5.59
2022-12-09T12:56:13.511Z,5.84
2022-12-09T12:59:01.410Z,5.39
2022-12-09T13:01:35.905Z,5.25
2022-12-09T13:04:22.429Z,5.72
2022-12-09T13:06:58.966Z,5.00
2022-12-09T13:09:37.885Z,5.62
2022-12-09T13:12:16.193Z,5.76
2022-12-09T13:14:57.382Z,5.66
2022-12-09T13:17:31.356Z,5.67
2022-12-09T13:20:06.278Z,5.96
2022-12-09T13:22:46.911Z,5.97
2022-12-09T13:25:30.692Z,5.92
2022-12-09T13:28:08.159Z,5.91
2022-12-09T13:30:51.070Z,5.73
2022-12-09T13:33:46.204Z,5.59
2022-12-09T13:36:23.625Z,5.17
2022-12-09T13:38:52.850Z,5.46
2022-12-09T13:42:03.838Z,5.09
2022-12-09T13:44:38.716Z,5.52
2022-12-09T13:47:34.542Z,5.79
2022-12-09T13:50:06.836Z,5.81
2022-12-09T13:52:52.473Z,5.82
2022-12-09T13:55:50.639Z,5.73
2022-12-09T13:58:59.866Z,5.52
2022-12-09T14:01:37.001Z,5.61
2022-12-09T14:04:15.086Z,5.90
2022-12-09T14:07:01.139Z,5.99
2022-12-09T14:09:43.184Z,5.55
2022-12-09T14:12:14.672Z,5.32
2022-12-09T14:14:53.202Z,5.65
2022-12-09T14:18:04.569Z,5.35
2022-12-09T14:20:41.112Z,5.74
2022-12-09T14:23:18.144Z,5.92
2022-12-09T14:26:06.279Z,5.52
2022-12-09T14:28:56.110Z,4.79
2022-12-09T14:32:02.728Z,5.43
2022-12-09T14:34:50.170Z,4.97
2022-12-09T14:38:02.652Z,5.47
2022-12-09T14:40:54.037Z,5.32
2022-12-09T14:43:55.830Z,5.15
2022-12-09T14:46:33.431Z,5.33
2022-12-09T14:49:12.181Z,4.83
2022-12-09T14:51:47.069Z,5.42
2022-12-09T14:54:22.024Z,5.41
2022-12-09T14:56:55.576Z,5.44
2022-12-09T14:59:28.486Z,5.46
2022-12-09T15:02:00.977Z,5.10
2022-12-09T15:04:36.733Z,5.38
2022-12-09T15:07:15.400Z,5.23
2022-12-09T15:09:53.709Z,4.63
2022-12-09T15:12:31.575Z,5.25
2022-12-09T15:15:11.333Z,4.76
2022-12-09T15:17:45.454Z,5.27
2022-12-09T15:20:29.104Z,4.89
2022-12-09T15:23:04.498Z,4.54
2022-12-09T15:25:35.652Z,4.99
2022-12-09T15:28:15.070Z,4.51
2022-12-09T15:30:47.024Z,5.07
2022-12-09T15:33:20.586Z,4.78
2022-12-09T15:35:57.198Z,4.86
2022-12-09T15:38:28.644Z,4.70
2022-12-09T15:41:18.684Z,4.70
2022-12-09T15:43:55.079Z,4.74
2022-12-09T15:46:35.777Z,4.61
2022-12-09T15:49:05.741Z,4.73
2022-12-09T15:51:38.157Z,4.78
2022-12-09T15:54:12.109Z,4.42
2022-12-09T15:56:45.539Z,4.32
2022-12-09T15:59:19.478Z,3.97
2022-12-09T16:01:54.133Z,4.21
2022-12-09T16:04:27.276Z,4.46
2022-12-09T16:06:57.186Z,4.71
2022-12-09T16:09:25.733Z,4.71
2022-12-09T16:11:56.327Z,4.46
2022-12-09T16:14:25.996Z,4.57
2022-12-09T16:17:02.570Z,4.56
2022-12-09T16:19:38.352Z,4.53
2022-12-09T16:22:10.947Z,4.53
2022-12-09T16:27:39.546Z,4.24
2022-12-09T16:30:19.960Z,4.13
2022-12-09T16:33:10.145Z,4.18
2022-12-09T16:35:43.042Z,3.90
2022-12-09T16:38:20.961Z,3.83
2022-12-09T16:41:23.137Z,3.88
2022-12-09T16:43:58.855Z,3.83
2022-12-09T16:46:43.964Z,3.89
2022-12-09T16:49:15.738Z,3.51
2022-12-09T16:51:45.450Z,3.52
2022-12-09T16:54:20.458Z,3.73
2022-12-09T16:56:53.682Z,3.56
2022-12-09T16:59:22.742Z,3.71
2022-12-09T17:01:53.577Z,3.63
2022-12-09T17:04:30.120Z,3.37
2022-12-09T17:06:59.576Z,3.31
2022-12-09T17:09:28.371Z,3.35
2022-12-09T17:12:00.883Z,3.22
2022-12-09T17:14:32.813Z,2.92
2022-12-09T17:17:02.878Z,2.91
2022-12-09T17:19:33.307Z,3.25
2022-12-09T17:22:01.753Z,3.26
2022-12-09T17:24:30.543Z,3.22
2022-12-09T17:26:59.562Z,3.19
2022-12-09T17:29:28.942Z,3.36
2022-12-09T17:31:57.743Z,2.88
2022-12-09T17:34:28.776Z,3.33
2022-12-09T17:36:59.290Z,3.06
2022-12-09T17:39:30.349Z,3.12
2022-12-09T17:41:58.836Z,3.49
2022-12-09T17:47:11.382Z,3.39
2022-12-09T17:49:40.333Z,3.16
2022-12-09T17:52:11.672Z,3.26
2022-12-09T17:54:41.082Z,3.51
2022-12-09T17:59:59.958Z,3.31
2022-12-09T18:02:29.920Z,3.31
2022-12-09T18:04:58.788Z,3.61
2022-12-09T18:07:31.081Z,3.50
2022-12-09T18:10:02.289Z,3.31
2022-12-09T18:12:31.163Z,3.61
2022-12-09T18:15:14.248Z,3.59
2022-12-09T18:20:39.664Z,2.97
2022-12-09T18:23:10.168Z,2.99
2022-12-09T18:25:42.304Z,3.16
2022-12-09T18:28:10.799Z,3.22
2022-12-09T18:30:40.657Z,3.36
2022-12-09T18:33:11.318Z,3.37
2022-12-09T18:35:42.703Z,3.23
2022-12-09T18:38:13.055Z,3.11
2022-12-09T18:41:01.035Z,2.88
2022-12-09T18:43:30.639Z,2.88
2022-12-09T18:46:04.067Z,2.70
2022-12-09T18:48:34.470Z,3.00
2022-12-09T18:51:02.858Z,3.35
2022-12-09T18:53:33.108Z,2.84
2022-12-09T18:56:06.517Z,3.00
2022-12-09T18:59:04.685Z,2.73
2022-12-09T19:01:30.713Z,2.28
2022-12-09T19:04:06.367Z,2.72
2022-12-09T19:06:39.306Z,2.61
2022-12-09T19:09:14.539Z,2.79
2022-12-09T19:11:44.763Z,2.47
2022-12-09T19:14:15.285Z,2.80
2022-12-09T19:16:45.670Z,2.83
2022-12-09T19:19:18.401Z,2.87
2022-12-09T19:21:48.081Z,3.10
2022-12-09T19:24:21.483Z,2.94
2022-12-09T19:26:53.344Z,2.57
2022-12-09T19:29:24.702Z,2.90
2022-12-09T19:31:54.645Z,3.09
2022-12-09T19:34:26.867Z,3.00
2022-12-09T19:36:58.755Z,2.54
2022-12-09T19:39:48.361Z,2.56
2022-12-09T19:42:19.380Z,2.33
2022-12-09T19:45:12.064Z,2.32
2022-12-09T19:47:40.379Z,2.84
2022-12-09T19:50:12.949Z,2.85
2022-12-09T19:52:42.971Z,2.53
2022-12-09T19:55:16.379Z,2.57
2022-12-09T19:58:06.004Z,2.89
2022-12-09T20:00:41.193Z,2.62
2022-12-09T20:03:12.343Z,2.61
2022-12-09T20:05:52.690Z,3.09
2022-12-09T20:08:23.595Z,3.18
2022-12-09T20:10:55.991Z,2.87
2022-12-09T20:13:31.831Z,3.07
2022-12-09T20:18:57.907Z,3.09
2022-12-09T20:21:28.006Z,3.05
2022-12-09T20:23:58.956Z,3.19
2022-12-09T20:26:35.188Z,3.09
2022-12-09T20:29:11.975Z,2.97
2022-12-09T20:31:43.523Z,2.79
2022-12-09T20:34:19.882Z,3.06
2022-12-09T20:36:49.538Z,2.98
2022-12-09T20:39:22.883Z,2.86
2022-12-09T20:41:54.908Z,2.66
2022-12-09T20:44:26.224Z,2.59
2022-12-09T20:46:57.980Z,2.44
2022-12-09T20:49:28.302Z,2.87
2022-12-09T20:51:58.012Z,3.16
2022-12-09T20:54:28.219Z,2.57
2022-12-09T20:57:00.194Z,2.63
2022-12-09T20:59:29.480Z,2.65
2022-12-09T21:01:58.811Z,2.76
2022-12-09T21:04:28.342Z,2.78
2022-12-09T21:06:58.171Z,2.56
2022-12-09T21:09:29.776Z,2.44
2022-12-09T21:12:00.429Z,2.61
2022-12-09T21:14:33.155Z,2.81
2022-12-09T21:17:03.271Z,2.78
2022-12-09T21:19:32.696Z,3.19
2022-12-09T21:22:04.373Z,3.02
2022-12-09T21:24:33.949Z,2.84
2022-12-09T21:27:05.065Z,3.09
2022-12-09T21:29:33.535Z,2.75
2022-12-09T21:32:05.723Z,2.67
2022-12-09T21:34:34.640Z,2.63
2022-12-09T21:37:03.499Z,2.84
2022-12-09T21:39:33.273Z,2.74
2022-12-09T21:42:03.356Z,3.15
2022-12-09T21:44:34.015Z,3.01
2022-12-09T21:47:04.475Z,2.71
2022-12-09T21:49:36.407Z,2.66
2022-12-09T21:52:07.109Z,2.81
2022-12-09T21:54:35.830Z,3.19
2022-12-09T21:57:08.432Z,3.31
2022-12-09T21:59:37.060Z,3.14
2022-12-09T22:02:05.925Z,3.09
2022-12-09T22:04:35.016Z,3.28
2022-12-09T22:07:05.073Z,3.33
2022-12-09T22:09:35.854Z,3.24
2022-12-09T22:12:08.049Z,3.24
2022-12-09T22:17:34.214Z,3.15
2022-12-09T22:20:48.847Z,3.23
2022-12-09T22:22:54.985Z,3.24
2022-12-09T22:25:24.082Z,3.10
2022-12-09T22:27:55.632Z,3.04
2022-12-09T22:30:24.690Z,3.11
2022-12-09T22:32:53.150Z,3.24
2022-12-09T22:35:21.987Z,3.27
2022-12-09T22:37:50.897Z,3.24
2022-12-09T22:40:20.452Z,3.30
2022-12-09T22:42:50.495Z,3.16
2022-12-09T22:45:20.822Z,2.99
2022-12-09T22:47:49.918Z,3.42
2022-12-09T22:50:21.911Z,3.09
2022-12-09T22:52:51.041Z,3.18
2022-12-09T22:55:21.200Z,3.33
2022-12-09T22:57:56.657Z,3.36
2022-12-09T23:00:26.616Z,3.41
2022-12-09T23:02:55.354Z,3.42
2022-12-09T23:05:23.752Z,3.41
2022-12-09T23:07:52.896Z,3.32
2022-12-09T23:10:21.421Z,3.32
2022-12-09T23:12:50.764Z,3.47
2022-12-09T23:15:19.184Z,3.25
2022-12-09T23:17:49.314Z,2.99
2022-12-09T23:20:18.046Z,3.30
2022-12-09T23:22:47.831Z,3.05
2022-12-09T23:25:19.471Z,3.15
2022-12-09T23:27:50.435Z,2.82
2022-12-09T23:30:19.263Z,3.01
2022-12-09T23:32:49.353Z,3.00
2022-12-09T23:35:18.276Z,2.44
2022-12-09T23:37:47.285Z,3.10
2022-12-09T23:40:16.061Z,2.90
2022-12-09T23:42:48.327Z,3.13
2022-12-09T23:45:17.692Z,3.12
2022-12-09T23:47:48.728Z,3.20
2022-12-09T23:50:17.643Z,2.84
2022-12-09T23:52:49.059Z,3.05
2022-12-09T23:55:17.924Z,2.96
2022-12-09T23:57:52.215Z,3.05
